AFR605 SOCA-TFFF
Flight info
| Callsign | AFR605 |
|---|---|
| Flight time | 1h 58m |
| Altitude | 38000 |
| Route | SILAT1A SILAT UA247 BUXEX UA555 BGI DCT BORUS BORUS2V |
| Aircraft | A320/M-SDE2E3FGIJ1RWY/HB1 |
Departure
| Time | 2026-05-06 07:33 |
|---|---|
| Airport | Cayenne – Félix Eboué Airport (SOCA) |
Arrival
| Time | 2026-05-06 09:32 |
|---|---|
| Airport | Martinique Aimé Césaire International Airport (TFFF) |
| Time | Latitude | Longitude | Altitude | Speed | Heading |
|---|---|---|---|---|---|
| 2026-05-06 07:15 | 4.82144 | -52.36360 | 28 ft | 0 kts | 343° |
| 2026-05-06 07:22 | 4.82135 | -52.36357 | 28 ft | 4 kts | 344° |
| 2026-05-06 07:23 | 4.82109 | -52.36350 | 28 ft | 4 kts | 349° |
| 2026-05-06 07:23 | 4.82082 | -52.36347 | 29 ft | 4 kts | 9° |
| 2026-05-06 07:23 | 4.82063 | -52.36356 | 29 ft | 2 kts | 65° |
| 2026-05-06 07:23 | 4.82060 | -52.36362 | 29 ft | 0 kts | 65° |
| 2026-05-06 07:27 | 4.82061 | -52.36360 | 29 ft | 1 kts | 65° |
| 2026-05-06 07:27 | 4.82070 | -52.36339 | 29 ft | 4 kts | 66° |
| 2026-05-06 07:27 | 4.82079 | -52.36321 | 29 ft | 3 kts | 66° |
| 2026-05-06 07:27 | 4.82091 | -52.36293 | 29 ft | 4 kts | 66° |
| 2026-05-06 07:28 | 4.82081 | -52.36262 | 29 ft | 7 kts | 151° |
| 2026-05-06 07:28 | 4.82037 | -52.36243 | 29 ft | 6 kts | 156° |
| 2026-05-06 07:28 | 4.81964 | -52.36216 | 29 ft | 7 kts | 185° |
| 2026-05-06 07:29 | 4.81928 | -52.36262 | 28 ft | 11 kts | 244° |
| 2026-05-06 07:29 | 4.81889 | -52.36344 | 28 ft | 15 kts | 245° |
| 2026-05-06 07:29 | 4.81837 | -52.36456 | 28 ft | 20 kts | 245° |
| 2026-05-06 07:29 | 4.81776 | -52.36587 | 28 ft | 22 kts | 245° |
| 2026-05-06 07:30 | 4.81710 | -52.36728 | 28 ft | 23 kts | 245° |
| 2026-05-06 07:30 | 4.81641 | -52.36877 | 28 ft | 24 kts | 245° |
| 2026-05-06 07:30 | 4.81568 | -52.37033 | 27 ft | 26 kts | 245° |
| 2026-05-06 07:30 | 4.81503 | -52.37175 | 27 ft | 21 kts | 245° |
| 2026-05-06 07:31 | 4.81440 | -52.37312 | 26 ft | 18 kts | 245° |
| 2026-05-06 07:31 | 4.81407 | -52.37400 | 25 ft | 10 kts | 184° |
| 2026-05-06 07:31 | 4.81402 | -52.37385 | 29 ft | 1 kts | 56° |
| 2026-05-06 07:31 | 4.81404 | -52.37382 | 29 ft | 0 kts | 62° |
| 2026-05-06 07:32 | 4.81406 | -52.37377 | 25 ft | 10 kts | 62° |
| 2026-05-06 07:32 | 4.81553 | -52.37066 | 27 ft | 85 kts | 65° |
| 2026-05-06 07:33 | 4.81890 | -52.36341 | 28 ft | 142 kts | 65° |
| 2026-05-06 07:33 | 4.82360 | -52.35336 | 269 ft | 165 kts | 64° |
| 2026-05-06 07:33 | 4.82837 | -52.34286 | 896 ft | 164 kts | 69° |
| 2026-05-06 07:33 | 4.83132 | -52.33184 | 1576 ft | 162 kts | 75° |
| 2026-05-06 07:34 | 4.83409 | -52.32092 | 2280 ft | 161 kts | 75° |
| 2026-05-06 07:34 | 4.83686 | -52.31012 | 2913 ft | 159 kts | 74° |
| 2026-05-06 07:34 | 4.83964 | -52.29927 | 3386 ft | 167 kts | 75° |
| 2026-05-06 07:34 | 4.84275 | -52.28722 | 3618 ft | 190 kts | 76° |
| 2026-05-06 07:35 | 4.84626 | -52.27360 | 3849 ft | 214 kts | 76° |
| 2026-05-06 07:35 | 4.85019 | -52.25836 | 4193 ft | 236 kts | 76° |
| 2026-05-06 07:35 | 4.85438 | -52.24209 | 4861 ft | 244 kts | 76° |
| 2026-05-06 07:35 | 4.85865 | -52.22553 | 5645 ft | 247 kts | 76° |
| 2026-05-06 07:36 | 4.86376 | -52.20900 | 6424 ft | 251 kts | 64° |
| 2026-05-06 07:36 | 4.87530 | -52.19576 | 7124 ft | 260 kts | 36° |
| 2026-05-06 07:36 | 4.89245 | -52.18945 | 7864 ft | 271 kts | 9° |
| 2026-05-06 07:36 | 4.91140 | -52.19226 | 8594 ft | 285 kts | 343° |
| 2026-05-06 07:37 | 4.92974 | -52.20012 | 9376 ft | 288 kts | 341° |
| 2026-05-06 07:37 | 4.94792 | -52.20820 | 10083 ft | 291 kts | 341° |
| 2026-05-06 07:37 | 4.96653 | -52.21654 | 10725 ft | 295 kts | 341° |
| 2026-05-06 07:37 | 4.98536 | -52.22493 | 11386 ft | 297 kts | 341° |
| 2026-05-06 07:38 | 5.00440 | -52.23334 | 12036 ft | 301 kts | 341° |
| 2026-05-06 07:38 | 5.02366 | -52.24181 | 12676 ft | 304 kts | 341° |
| 2026-05-06 07:38 | 5.04313 | -52.25035 | 13307 ft | 307 kts | 341° |
| 2026-05-06 07:38 | 5.06278 | -52.25897 | 13915 ft | 310 kts | 341° |
| 2026-05-06 07:39 | 5.08263 | -52.26768 | 14477 ft | 313 kts | 340° |
| 2026-05-06 07:39 | 5.10249 | -52.27686 | 15026 ft | 317 kts | 334° |
| 2026-05-06 07:39 | 5.12118 | -52.28949 | 15297 ft | 334 kts | 327° |
| 2026-05-06 07:39 | 5.14044 | -52.30367 | 15419 ft | 353 kts | 326° |
| 2026-05-06 07:40 | 5.16067 | -52.31868 | 15543 ft | 370 kts | 326° |
| 2026-05-06 07:40 | 5.18161 | -52.33429 | 15866 ft | 379 kts | 326° |
| 2026-05-06 07:40 | 5.20293 | -52.35023 | 16313 ft | 384 kts | 325° |
| 2026-05-06 07:40 | 5.22442 | -52.36625 | 16840 ft | 387 kts | 326° |
| 2026-05-06 07:41 | 5.24617 | -52.38239 | 17315 ft | 391 kts | 326° |
| 2026-05-06 07:41 | 5.26806 | -52.39862 | 17879 ft | 392 kts | 325° |
| 2026-05-06 07:41 | 5.29005 | -52.41492 | 18384 ft | 394 kts | 324° |
| 2026-05-06 07:41 | 5.31212 | -52.43129 | 18873 ft | 395 kts | 324° |
| 2026-05-06 07:42 | 5.33429 | -52.44772 | 19330 ft | 397 kts | 324° |
| 2026-05-06 07:42 | 5.35654 | -52.46420 | 19816 ft | 398 kts | 324° |
| 2026-05-06 07:42 | 5.37885 | -52.48075 | 20300 ft | 400 kts | 324° |
| 2026-05-06 07:42 | 5.40125 | -52.49737 | 20787 ft | 401 kts | 324° |
| 2026-05-06 07:43 | 5.42371 | -52.51406 | 21271 ft | 403 kts | 323° |
| 2026-05-06 07:43 | 5.44628 | -52.53082 | 21727 ft | 405 kts | 323° |
| 2026-05-06 07:43 | 5.46759 | -52.54941 | 22165 ft | 407 kts | 313° |
| 2026-05-06 07:43 | 5.48650 | -52.57062 | 22636 ft | 409 kts | 311° |
| 2026-05-06 07:44 | 5.50540 | -52.59200 | 23078 ft | 411 kts | 311° |
| 2026-05-06 07:44 | 5.52442 | -52.61347 | 23553 ft | 411 kts | 311° |
| 2026-05-06 07:44 | 5.54347 | -52.63489 | 23935 ft | 412 kts | 311° |
| 2026-05-06 07:44 | 5.56268 | -52.65648 | 24228 ft | 416 kts | 310° |
| 2026-05-06 07:45 | 5.58199 | -52.67823 | 24547 ft | 419 kts | 310° |
| 2026-05-06 07:45 | 5.60144 | -52.70016 | 24832 ft | 422 kts | 311° |
| 2026-05-06 07:45 | 5.62104 | -52.72226 | 25131 ft | 425 kts | 310° |
| 2026-05-06 07:45 | 5.64073 | -52.74448 | 25427 ft | 428 kts | 310° |
| 2026-05-06 07:46 | 5.66056 | -52.76686 | 25712 ft | 430 kts | 310° |
| 2026-05-06 07:46 | 5.68054 | -52.78940 | 25997 ft | 433 kts | 310° |
| 2026-05-06 07:46 | 5.70064 | -52.81208 | 26277 ft | 436 kts | 310° |
| 2026-05-06 07:46 | 5.72087 | -52.83487 | 26553 ft | 438 kts | 309° |
| 2026-05-06 07:47 | 5.74118 | -52.85778 | 26820 ft | 441 kts | 310° |
| 2026-05-06 07:47 | 5.76135 | -52.88054 | 27091 ft | 443 kts | 309° |
| 2026-05-06 07:47 | 5.78186 | -52.90372 | 27352 ft | 445 kts | 309° |
| 2026-05-06 07:47 | 5.80250 | -52.92704 | 27601 ft | 448 kts | 309° |
| 2026-05-06 07:48 | 5.82327 | -52.95050 | 27854 ft | 451 kts | 309° |
| 2026-05-06 07:48 | 5.84415 | -52.97409 | 28113 ft | 453 kts | 309° |
| 2026-05-06 07:48 | 5.86509 | -52.99776 | 28373 ft | 454 kts | 309° |
| 2026-05-06 07:48 | 5.88613 | -53.02153 | 28616 ft | 457 kts | 309° |
| 2026-05-06 07:49 | 5.90730 | -53.04543 | 28860 ft | 459 kts | 309° |
| 2026-05-06 07:49 | 5.92853 | -53.06942 | 29129 ft | 460 kts | 309° |
| 2026-05-06 07:49 | 5.94982 | -53.09348 | 29365 ft | 462 kts | 309° |
| 2026-05-06 07:49 | 5.97123 | -53.11765 | 29585 ft | 464 kts | 310° |
| 2026-05-06 07:50 | 5.99276 | -53.14193 | 29808 ft | 466 kts | 309° |
| 2026-05-06 07:50 | 6.01435 | -53.16631 | 30010 ft | 468 kts | 310° |
| 2026-05-06 07:50 | 6.03603 | -53.19082 | 30214 ft | 470 kts | 309° |
| 2026-05-06 07:50 | 6.05777 | -53.21544 | 30377 ft | 472 kts | 309° |
| 2026-05-06 07:51 | 6.07957 | -53.24011 | 30552 ft | 473 kts | 309° |
| 2026-05-06 07:51 | 6.10150 | -53.26493 | 30722 ft | 475 kts | 309° |
| 2026-05-06 07:51 | 6.12347 | -53.28979 | 30892 ft | 477 kts | 309° |
| 2026-05-06 07:51 | 6.14550 | -53.31469 | 31079 ft | 477 kts | 309° |
| 2026-05-06 07:52 | 6.16756 | -53.33960 | 31314 ft | 477 kts | 309° |
| 2026-05-06 07:52 | 6.18959 | -53.36453 | 31561 ft | 477 kts | 309° |
| 2026-05-06 07:52 | 6.21160 | -53.38945 | 31808 ft | 476 kts | 309° |
| 2026-05-06 07:52 | 6.23356 | -53.41428 | 32053 ft | 475 kts | 309° |
| 2026-05-06 07:53 | 6.25550 | -53.43912 | 32293 ft | 475 kts | 309° |
| 2026-05-06 07:53 | 6.27748 | -53.46402 | 32520 ft | 476 kts | 309° |
| 2026-05-06 07:53 | 6.29940 | -53.48890 | 32741 ft | 476 kts | 309° |
| 2026-05-06 07:53 | 6.32137 | -53.51381 | 32992 ft | 476 kts | 309° |
| 2026-05-06 07:54 | 6.34330 | -53.53867 | 33220 ft | 476 kts | 309° |
| 2026-05-06 07:54 | 6.36525 | -53.56357 | 33457 ft | 476 kts | 309° |
| 2026-05-06 07:54 | 6.38720 | -53.58847 | 33702 ft | 475 kts | 309° |
| 2026-05-06 07:54 | 6.40886 | -53.61303 | 33925 ft | 476 kts | 309° |
| 2026-05-06 07:55 | 6.45305 | -53.66301 | 33992 ft | 474 kts | 309° |
| 2026-05-06 07:55 | 6.49670 | -53.71239 | 33990 ft | 472 kts | 309° |
| 2026-05-06 07:56 | 6.53984 | -53.76140 | 33984 ft | 470 kts | 309° |
| 2026-05-06 07:56 | 6.58315 | -53.81051 | 33988 ft | 469 kts | 309° |
| 2026-05-06 07:57 | 6.62634 | -53.85957 | 33988 ft | 469 kts | 309° |
| 2026-05-06 07:57 | 6.66956 | -53.90867 | 33999 ft | 469 kts | 309° |
| 2026-05-06 07:58 | 6.71279 | -53.95771 | 33994 ft | 468 kts | 309° |
| 2026-05-06 07:58 | 6.75700 | -54.00587 | 33993 ft | 470 kts | 316° |
| 2026-05-06 07:59 | 6.80691 | -54.04836 | 33997 ft | 470 kts | 317° |
| 2026-05-06 07:59 | 6.85697 | -54.09059 | 33996 ft | 470 kts | 317° |
| 2026-05-06 08:00 | 6.90706 | -54.13284 | 33994 ft | 470 kts | 317° |
| 2026-05-06 08:00 | 6.95696 | -54.17519 | 33997 ft | 469 kts | 317° |
| 2026-05-06 08:01 | 7.00687 | -54.21755 | 33997 ft | 469 kts | 317° |
| 2026-05-06 08:01 | 7.05680 | -54.25993 | 33995 ft | 470 kts | 317° |
| 2026-05-06 08:02 | 7.10683 | -54.30237 | 34001 ft | 470 kts | 317° |
| 2026-05-06 08:02 | 7.15670 | -54.34472 | 33990 ft | 469 kts | 317° |
| 2026-05-06 08:03 | 7.20659 | -54.38702 | 33995 ft | 469 kts | 317° |
| 2026-05-06 08:03 | 7.25640 | -54.42933 | 33999 ft | 468 kts | 317° |
| 2026-05-06 08:04 | 7.30627 | -54.47162 | 33991 ft | 468 kts | 317° |
| 2026-05-06 08:04 | 7.34766 | -54.50681 | 33996 ft | 469 kts | 317° |
| 2026-05-06 08:05 | 7.39747 | -54.54911 | 33995 ft | 468 kts | 317° |
| 2026-05-06 08:05 | 7.44717 | -54.59138 | 33994 ft | 467 kts | 317° |
| 2026-05-06 08:06 | 7.49670 | -54.63352 | 33997 ft | 466 kts | 317° |
| 2026-05-06 08:06 | 7.54622 | -54.67562 | 33998 ft | 466 kts | 317° |
| 2026-05-06 08:07 | 7.59566 | -54.71772 | 34005 ft | 465 kts | 317° |
| 2026-05-06 08:07 | 7.64513 | -54.75987 | 34002 ft | 465 kts | 317° |
| 2026-05-06 08:08 | 7.69443 | -54.80177 | 34007 ft | 463 kts | 317° |
| 2026-05-06 08:08 | 7.74363 | -54.84369 | 34006 ft | 463 kts | 317° |
| 2026-05-06 08:09 | 7.79265 | -54.88554 | 34001 ft | 461 kts | 317° |
| 2026-05-06 08:09 | 7.84158 | -54.92723 | 34002 ft | 460 kts | 317° |
| 2026-05-06 08:10 | 7.89010 | -54.96857 | 34007 ft | 460 kts | 317° |
| 2026-05-06 08:10 | 7.93899 | -55.01021 | 34004 ft | 460 kts | 317° |
| 2026-05-06 08:11 | 7.98788 | -55.05186 | 34001 ft | 460 kts | 317° |
| 2026-05-06 08:11 | 8.03673 | -55.09360 | 34004 ft | 460 kts | 317° |
| 2026-05-06 08:12 | 8.08558 | -55.13538 | 34008 ft | 460 kts | 317° |
| 2026-05-06 08:12 | 8.13428 | -55.17701 | 34007 ft | 457 kts | 317° |
| 2026-05-06 08:13 | 8.18273 | -55.21835 | 34000 ft | 456 kts | 317° |
| 2026-05-06 08:13 | 8.23116 | -55.25967 | 34002 ft | 456 kts | 317° |
| 2026-05-06 08:14 | 8.27949 | -55.30089 | 34014 ft | 454 kts | 317° |
| 2026-05-06 08:14 | 8.32766 | -55.34212 | 34002 ft | 454 kts | 317° |
| 2026-05-06 08:15 | 8.37580 | -55.38337 | 34014 ft | 454 kts | 317° |
| 2026-05-06 08:15 | 8.42400 | -55.42462 | 34008 ft | 454 kts | 317° |
| 2026-05-06 08:16 | 8.47215 | -55.46583 | 34016 ft | 453 kts | 317° |
| 2026-05-06 08:16 | 8.52028 | -55.50697 | 34013 ft | 453 kts | 317° |
| 2026-05-06 08:17 | 8.56836 | -55.54818 | 34013 ft | 453 kts | 317° |
| 2026-05-06 08:17 | 8.61637 | -55.58937 | 34015 ft | 453 kts | 317° |
| 2026-05-06 08:18 | 8.66445 | -55.63049 | 34015 ft | 453 kts | 317° |
| 2026-05-06 08:18 | 8.71249 | -55.67168 | 34012 ft | 453 kts | 317° |
| 2026-05-06 08:19 | 8.76053 | -55.71290 | 34023 ft | 453 kts | 317° |
| 2026-05-06 08:19 | 8.80854 | -55.75407 | 34018 ft | 453 kts | 317° |
| 2026-05-06 08:20 | 8.85655 | -55.79532 | 34018 ft | 453 kts | 317° |
| 2026-05-06 08:20 | 8.90448 | -55.83660 | 34018 ft | 453 kts | 317° |
| 2026-05-06 08:21 | 8.95223 | -55.87754 | 34018 ft | 453 kts | 317° |
| 2026-05-06 08:21 | 9.00031 | -55.91871 | 34022 ft | 453 kts | 317° |
| 2026-05-06 08:22 | 9.04837 | -55.95996 | 34108 ft | 454 kts | 317° |
| 2026-05-06 08:22 | 9.07245 | -55.98062 | 34360 ft | 453 kts | 317° |
| 2026-05-06 08:22 | 9.09645 | -56.00126 | 34592 ft | 453 kts | 317° |
| 2026-05-06 08:23 | 9.12041 | -56.02191 | 34811 ft | 453 kts | 317° |
| 2026-05-06 08:23 | 9.14438 | -56.04256 | 35020 ft | 453 kts | 317° |
| 2026-05-06 08:23 | 9.16835 | -56.06322 | 35230 ft | 452 kts | 317° |
| 2026-05-06 08:23 | 9.19231 | -56.08386 | 35430 ft | 452 kts | 317° |
| 2026-05-06 08:24 | 9.21626 | -56.10449 | 35628 ft | 452 kts | 316° |
| 2026-05-06 08:24 | 9.24020 | -56.12512 | 35824 ft | 452 kts | 317° |
| 2026-05-06 08:24 | 9.26415 | -56.14574 | 35977 ft | 452 kts | 317° |
| 2026-05-06 08:24 | 9.28813 | -56.16639 | 36021 ft | 452 kts | 316° |
| 2026-05-06 08:25 | 9.33605 | -56.20763 | 36022 ft | 452 kts | 317° |
| 2026-05-06 08:25 | 9.38395 | -56.24889 | 36022 ft | 452 kts | 316° |
| 2026-05-06 08:26 | 9.43180 | -56.29020 | 36022 ft | 452 kts | 316° |
| 2026-05-06 08:26 | 9.47959 | -56.33149 | 36021 ft | 451 kts | 317° |
| 2026-05-06 08:27 | 9.52732 | -56.37271 | 36020 ft | 451 kts | 317° |
| 2026-05-06 08:27 | 9.57511 | -56.41386 | 36022 ft | 451 kts | 317° |
| 2026-05-06 08:28 | 9.62290 | -56.45503 | 36025 ft | 451 kts | 317° |
| 2026-05-06 08:28 | 9.67065 | -56.49627 | 36025 ft | 451 kts | 317° |
| 2026-05-06 08:29 | 9.71835 | -56.53751 | 36024 ft | 451 kts | 317° |
| 2026-05-06 08:29 | 9.76609 | -56.57879 | 36025 ft | 451 kts | 317° |
| 2026-05-06 08:30 | 9.81381 | -56.62007 | 36029 ft | 451 kts | 317° |
| 2026-05-06 08:30 | 9.86145 | -56.66140 | 36030 ft | 451 kts | 316° |
| 2026-05-06 08:31 | 9.90914 | -56.70269 | 36030 ft | 451 kts | 317° |
| 2026-05-06 08:31 | 9.95692 | -56.74394 | 36030 ft | 451 kts | 317° |
| 2026-05-06 08:32 | 10.00456 | -56.78524 | 36029 ft | 451 kts | 317° |
| 2026-05-06 08:32 | 10.05191 | -56.82635 | 36029 ft | 451 kts | 317° |
| 2026-05-06 08:33 | 10.09957 | -56.86770 | 36030 ft | 451 kts | 317° |
| 2026-05-06 08:33 | 10.14729 | -56.90901 | 36035 ft | 451 kts | 317° |
| 2026-05-06 08:34 | 10.21892 | -56.97106 | 36032 ft | 451 kts | 317° |
| 2026-05-06 08:35 | 10.26657 | -57.01255 | 36033 ft | 451 kts | 317° |
| 2026-05-06 08:35 | 10.31425 | -57.05396 | 36035 ft | 451 kts | 318° |
| 2026-05-06 08:36 | 10.36202 | -57.09538 | 36039 ft | 452 kts | 317° |
| 2026-05-06 08:36 | 10.40971 | -57.13687 | 36038 ft | 451 kts | 316° |
| 2026-05-06 08:37 | 10.45740 | -57.17838 | 36038 ft | 452 kts | 316° |
| 2026-05-06 08:37 | 10.50514 | -57.21994 | 36038 ft | 452 kts | 317° |
| 2026-05-06 08:38 | 10.55293 | -57.26153 | 36039 ft | 452 kts | 317° |
| 2026-05-06 08:38 | 10.60068 | -57.30304 | 36038 ft | 452 kts | 317° |
| 2026-05-06 08:39 | 10.64845 | -57.34460 | 36038 ft | 452 kts | 318° |
| 2026-05-06 08:39 | 10.69617 | -57.38623 | 36045 ft | 452 kts | 317° |
| 2026-05-06 08:40 | 10.74387 | -57.42784 | 36037 ft | 452 kts | 317° |
| 2026-05-06 08:40 | 10.79128 | -57.46914 | 36040 ft | 452 kts | 318° |
| 2026-05-06 08:41 | 10.83937 | -57.51101 | 36049 ft | 452 kts | 317° |
| 2026-05-06 08:41 | 10.88669 | -57.55236 | 36048 ft | 451 kts | 318° |
| 2026-05-06 08:42 | 10.93427 | -57.59400 | 36049 ft | 452 kts | 318° |
| 2026-05-06 08:42 | 10.98196 | -57.63564 | 36049 ft | 452 kts | 317° |
| 2026-05-06 08:43 | 11.02964 | -57.67721 | 36049 ft | 451 kts | 318° |
| 2026-05-06 08:43 | 11.07727 | -57.71885 | 36049 ft | 452 kts | 317° |
| 2026-05-06 08:44 | 11.12484 | -57.76056 | 36052 ft | 451 kts | 317° |
| 2026-05-06 08:44 | 11.17237 | -57.80228 | 36052 ft | 451 kts | 319° |
| 2026-05-06 08:45 | 11.21999 | -57.84387 | 36050 ft | 452 kts | 319° |
| 2026-05-06 08:45 | 11.26764 | -57.88552 | 36051 ft | 451 kts | 318° |
| 2026-05-06 08:46 | 11.31520 | -57.92722 | 36051 ft | 451 kts | 318° |
| 2026-05-06 08:46 | 11.36277 | -57.96898 | 36052 ft | 452 kts | 318° |
| 2026-05-06 08:47 | 11.41037 | -58.01074 | 36053 ft | 452 kts | 319° |
| 2026-05-06 08:47 | 11.45800 | -58.05244 | 36050 ft | 451 kts | 318° |
| 2026-05-06 08:48 | 11.50559 | -58.09421 | 36051 ft | 452 kts | 318° |
| 2026-05-06 08:48 | 11.55310 | -58.13608 | 36054 ft | 452 kts | 318° |
| 2026-05-06 08:49 | 11.60072 | -58.17792 | 36050 ft | 452 kts | 318° |
| 2026-05-06 08:49 | 11.64837 | -58.21975 | 36052 ft | 452 kts | 319° |
| 2026-05-06 08:50 | 11.69601 | -58.26168 | 36054 ft | 452 kts | 319° |
| 2026-05-06 08:50 | 11.74324 | -58.30326 | 36054 ft | 452 kts | 319° |
| 2026-05-06 08:51 | 11.79081 | -58.34521 | 36053 ft | 452 kts | 318° |
| 2026-05-06 08:51 | 11.83846 | -58.38710 | 36055 ft | 452 kts | 318° |
| 2026-05-06 08:52 | 11.88606 | -58.42902 | 36053 ft | 452 kts | 319° |
| 2026-05-06 08:52 | 11.93366 | -58.47102 | 36055 ft | 452 kts | 318° |
| 2026-05-06 08:53 | 11.98132 | -58.51307 | 36055 ft | 453 kts | 318° |
| 2026-05-06 08:53 | 12.02894 | -58.55515 | 36054 ft | 453 kts | 318° |
| 2026-05-06 08:54 | 12.06854 | -58.59011 | 36054 ft | 453 kts | 318° |
| 2026-05-06 08:54 | 12.11623 | -58.63221 | 36059 ft | 453 kts | 318° |
| 2026-05-06 08:55 | 12.16388 | -58.67427 | 36060 ft | 452 kts | 318° |
| 2026-05-06 08:55 | 12.21147 | -58.71641 | 36059 ft | 453 kts | 318° |
| 2026-05-06 08:56 | 12.25910 | -58.75859 | 36060 ft | 453 kts | 318° |
| 2026-05-06 08:56 | 12.30672 | -58.80072 | 36061 ft | 452 kts | 317° |
| 2026-05-06 08:57 | 12.35428 | -58.84288 | 36063 ft | 453 kts | 318° |
| 2026-05-06 08:57 | 12.40187 | -58.88507 | 36065 ft | 453 kts | 319° |
| 2026-05-06 08:58 | 12.44950 | -58.92721 | 36063 ft | 452 kts | 318° |
| 2026-05-06 08:58 | 12.49705 | -58.96941 | 36065 ft | 453 kts | 318° |
| 2026-05-06 08:59 | 12.54462 | -59.01170 | 36064 ft | 453 kts | 318° |
| 2026-05-06 08:59 | 12.59217 | -59.05388 | 36063 ft | 452 kts | 318° |
| 2026-05-06 09:00 | 12.63967 | -59.09603 | 36064 ft | 452 kts | 318° |
| 2026-05-06 09:00 | 12.68719 | -59.13818 | 36068 ft | 452 kts | 318° |
| 2026-05-06 09:01 | 12.73463 | -59.18037 | 36068 ft | 451 kts | 318° |
| 2026-05-06 09:01 | 12.78202 | -59.22265 | 36065 ft | 452 kts | 318° |
| 2026-05-06 09:02 | 12.82949 | -59.26489 | 36064 ft | 452 kts | 318° |
| 2026-05-06 09:02 | 12.87688 | -59.30706 | 36062 ft | 451 kts | 318° |
| 2026-05-06 09:03 | 12.92427 | -59.34932 | 36060 ft | 452 kts | 318° |
| 2026-05-06 09:03 | 12.97164 | -59.39157 | 36058 ft | 451 kts | 318° |
| 2026-05-06 09:04 | 13.01898 | -59.43382 | 36055 ft | 451 kts | 318° |
| 2026-05-06 09:04 | 13.06634 | -59.47605 | 36057 ft | 452 kts | 318° |
| 2026-05-06 09:05 | 13.11261 | -59.51961 | 36056 ft | 451 kts | 315° |
| 2026-05-06 09:05 | 13.15693 | -59.56505 | 36057 ft | 450 kts | 314° |
| 2026-05-06 09:06 | 13.20078 | -59.61041 | 36057 ft | 451 kts | 314° |
| 2026-05-06 09:06 | 13.24543 | -59.65564 | 36061 ft | 451 kts | 315° |
| 2026-05-06 09:07 | 13.29025 | -59.70059 | 36063 ft | 450 kts | 314° |
| 2026-05-06 09:07 | 13.33497 | -59.74557 | 35967 ft | 451 kts | 314° |
| 2026-05-06 09:07 | 13.35733 | -59.76814 | 35727 ft | 451 kts | 315° |
| 2026-05-06 09:08 | 13.37969 | -59.79072 | 35492 ft | 451 kts | 315° |
| 2026-05-06 09:08 | 13.40203 | -59.81328 | 35262 ft | 450 kts | 314° |
| 2026-05-06 09:08 | 13.42429 | -59.83577 | 35031 ft | 448 kts | 315° |
| 2026-05-06 09:08 | 13.44648 | -59.85820 | 34799 ft | 447 kts | 314° |
| 2026-05-06 09:09 | 13.46859 | -59.88053 | 34446 ft | 444 kts | 314° |
| 2026-05-06 09:09 | 13.49055 | -59.90273 | 33871 ft | 442 kts | 315° |
| 2026-05-06 09:09 | 13.51239 | -59.92484 | 33312 ft | 439 kts | 314° |
| 2026-05-06 09:09 | 13.53411 | -59.94680 | 32775 ft | 436 kts | 315° |
| 2026-05-06 09:10 | 13.55567 | -59.96859 | 32243 ft | 433 kts | 314° |
| 2026-05-06 09:10 | 13.57711 | -59.99025 | 31712 ft | 431 kts | 314° |
| 2026-05-06 09:10 | 13.59843 | -60.01179 | 31188 ft | 428 kts | 314° |
| 2026-05-06 09:10 | 13.61956 | -60.03318 | 30669 ft | 426 kts | 314° |
| 2026-05-06 09:11 | 13.64059 | -60.05452 | 30160 ft | 423 kts | 314° |
| 2026-05-06 09:11 | 13.66121 | -60.07543 | 29600 ft | 420 kts | 314° |
| 2026-05-06 09:11 | 13.68218 | -60.09672 | 29111 ft | 415 kts | 314° |
| 2026-05-06 09:11 | 13.70264 | -60.11746 | 28626 ft | 411 kts | 313° |
| 2026-05-06 09:12 | 13.72265 | -60.13771 | 28169 ft | 407 kts | 314° |
| 2026-05-06 09:12 | 13.74275 | -60.15806 | 27702 ft | 403 kts | 313° |
| 2026-05-06 09:12 | 13.76264 | -60.17824 | 27244 ft | 400 kts | 313° |
| 2026-05-06 09:12 | 13.78233 | -60.19824 | 26805 ft | 397 kts | 314° |
| 2026-05-06 09:13 | 13.80191 | -60.21813 | 26350 ft | 394 kts | 314° |
| 2026-05-06 09:13 | 13.82136 | -60.23790 | 25903 ft | 392 kts | 314° |
| 2026-05-06 09:13 | 13.84070 | -60.25756 | 25455 ft | 390 kts | 314° |
| 2026-05-06 09:13 | 13.85996 | -60.27710 | 24985 ft | 388 kts | 314° |
| 2026-05-06 09:14 | 13.87918 | -60.29657 | 24516 ft | 387 kts | 314° |
| 2026-05-06 09:14 | 13.89835 | -60.31602 | 24029 ft | 387 kts | 314° |
| 2026-05-06 09:14 | 13.91750 | -60.33548 | 23528 ft | 387 kts | 314° |
| 2026-05-06 09:14 | 13.93661 | -60.35490 | 22992 ft | 385 kts | 314° |
| 2026-05-06 09:15 | 13.95560 | -60.37421 | 22509 ft | 383 kts | 315° |
| 2026-05-06 09:15 | 13.97450 | -60.39342 | 22025 ft | 381 kts | 315° |
| 2026-05-06 09:15 | 13.99329 | -60.41252 | 21548 ft | 379 kts | 315° |
| 2026-05-06 09:15 | 14.01198 | -60.43156 | 21070 ft | 377 kts | 316° |
| 2026-05-06 09:16 | 14.03056 | -60.45049 | 20594 ft | 375 kts | 316° |
| 2026-05-06 09:16 | 14.04768 | -60.47065 | 20110 ft | 373 kts | 305° |
| 2026-05-06 09:16 | 14.06047 | -60.49339 | 19628 ft | 360 kts | 300° |
| 2026-05-06 09:16 | 14.07218 | -60.51572 | 19182 ft | 348 kts | 301° |
| 2026-05-06 09:17 | 14.08351 | -60.53730 | 18747 ft | 337 kts | 301° |
| 2026-05-06 09:17 | 14.09461 | -60.55836 | 18317 ft | 334 kts | 302° |
| 2026-05-06 09:17 | 14.10561 | -60.57910 | 17857 ft | 335 kts | 302° |
| 2026-05-06 09:17 | 14.11672 | -60.60011 | 17435 ft | 334 kts | 301° |
| 2026-05-06 09:18 | 14.12781 | -60.62110 | 17015 ft | 333 kts | 301° |
| 2026-05-06 09:18 | 14.13888 | -60.64202 | 16589 ft | 333 kts | 301° |
| 2026-05-06 09:18 | 14.14995 | -60.66296 | 16193 ft | 332 kts | 301° |
| 2026-05-06 09:18 | 14.16100 | -60.68386 | 15783 ft | 332 kts | 301° |
| 2026-05-06 09:19 | 14.17207 | -60.70477 | 15379 ft | 332 kts | 302° |
| 2026-05-06 09:19 | 14.18311 | -60.72570 | 14976 ft | 332 kts | 302° |
| 2026-05-06 09:19 | 14.19412 | -60.74664 | 14571 ft | 333 kts | 301° |
| 2026-05-06 09:19 | 14.20515 | -60.76760 | 14166 ft | 333 kts | 301° |
| 2026-05-06 09:20 | 14.21619 | -60.78859 | 13752 ft | 333 kts | 301° |
| 2026-05-06 09:20 | 14.22721 | -60.80958 | 13318 ft | 333 kts | 300° |
| 2026-05-06 09:20 | 14.23820 | -60.83053 | 12911 ft | 332 kts | 300° |
| 2026-05-06 09:20 | 14.24917 | -60.85140 | 12501 ft | 330 kts | 300° |
| 2026-05-06 09:21 | 14.26009 | -60.87215 | 12096 ft | 329 kts | 300° |
| 2026-05-06 09:21 | 14.27100 | -60.89280 | 11686 ft | 327 kts | 300° |
| 2026-05-06 09:21 | 14.28180 | -60.91323 | 11460 ft | 318 kts | 300° |
| 2026-05-06 09:21 | 14.29223 | -60.93300 | 10936 ft | 312 kts | 300° |
| 2026-05-06 09:22 | 14.30246 | -60.95242 | 10494 ft | 304 kts | 300° |
| 2026-05-06 09:22 | 14.31247 | -60.97145 | 10096 ft | 303 kts | 299° |
| 2026-05-06 09:22 | 14.32239 | -60.99035 | 9680 ft | 304 kts | 299° |
| 2026-05-06 09:22 | 14.33258 | -61.00978 | 9256 ft | 304 kts | 299° |
| 2026-05-06 09:23 | 14.34248 | -61.02866 | 8847 ft | 303 kts | 299° |
| 2026-05-06 09:23 | 14.35254 | -61.04782 | 8375 ft | 305 kts | 299° |
| 2026-05-06 09:23 | 14.36265 | -61.06708 | 7914 ft | 306 kts | 299° |
| 2026-05-06 09:23 | 14.37277 | -61.08637 | 7487 ft | 306 kts | 299° |
| 2026-05-06 09:24 | 14.38291 | -61.10576 | 7033 ft | 307 kts | 299° |
| 2026-05-06 09:24 | 14.39301 | -61.12502 | 6639 ft | 306 kts | 299° |
| 2026-05-06 09:24 | 14.40318 | -61.14439 | 6221 ft | 305 kts | 299° |
| 2026-05-06 09:24 | 14.41340 | -61.16383 | 5625 ft | 308 kts | 298° |
| 2026-05-06 09:25 | 14.42343 | -61.18288 | 5145 ft | 296 kts | 298° |
| 2026-05-06 09:25 | 14.43305 | -61.20120 | 4680 ft | 285 kts | 298° |
| 2026-05-06 09:25 | 14.44435 | -61.21723 | 4352 ft | 267 kts | 321° |
| 2026-05-06 09:25 | 14.45958 | -61.22666 | 4291 ft | 247 kts | 346° |
| 2026-05-06 09:26 | 14.47596 | -61.22917 | 4203 ft | 234 kts | 8° |
| 2026-05-06 09:26 | 14.49161 | -61.22575 | 4107 ft | 229 kts | 21° |
| 2026-05-06 09:26 | 14.50680 | -61.22111 | 3996 ft | 227 kts | 20° |
| 2026-05-06 09:26 | 14.52195 | -61.21651 | 3889 ft | 227 kts | 21° |
| 2026-05-06 09:27 | 14.53693 | -61.21147 | 3652 ft | 227 kts | 31° |
| 2026-05-06 09:27 | 14.54927 | -61.20243 | 3418 ft | 216 kts | 51° |
| 2026-05-06 09:27 | 14.55756 | -61.19001 | 3195 ft | 208 kts | 69° |
| 2026-05-06 09:27 | 14.56140 | -61.17580 | 2955 ft | 206 kts | 82° |
| 2026-05-06 09:28 | 14.56388 | -61.16129 | 2694 ft | 204 kts | 81° |
| 2026-05-06 09:28 | 14.56632 | -61.14707 | 2434 ft | 201 kts | 81° |
| 2026-05-06 09:28 | 14.56871 | -61.13323 | 2171 ft | 190 kts | 81° |
| 2026-05-06 09:28 | 14.57093 | -61.12036 | 1963 ft | 175 kts | 81° |
| 2026-05-06 09:29 | 14.57298 | -61.10846 | 1724 ft | 162 kts | 81° |
| 2026-05-06 09:29 | 14.57487 | -61.09746 | 1507 ft | 150 kts | 82° |
| 2026-05-06 09:29 | 14.57662 | -61.08731 | 1353 ft | 140 kts | 81° |
| 2026-05-06 09:29 | 14.57829 | -61.07759 | 1159 ft | 139 kts | 80° |
| 2026-05-06 09:30 | 14.57995 | -61.06787 | 982 ft | 136 kts | 77° |
| 2026-05-06 09:30 | 14.58158 | -61.05840 | 815 ft | 138 kts | 79° |
| 2026-05-06 09:30 | 14.58324 | -61.04875 | 646 ft | 135 kts | 81° |
| 2026-05-06 09:30 | 14.58482 | -61.03907 | 450 ft | 134 kts | 79° |
| 2026-05-06 09:31 | 14.58662 | -61.02949 | 267 ft | 137 kts | 78° |
| 2026-05-06 09:31 | 14.58824 | -61.01992 | 100 ft | 135 kts | 79° |
| 2026-05-06 09:31 | 14.58981 | -61.01078 | 23 ft | 116 kts | 80° |
| 2026-05-06 09:31 | 14.59086 | -61.00440 | 15 ft | 65 kts | 80° |
| 2026-05-06 09:32 | 14.59133 | -61.00173 | 16 ft | 24 kts | 79° |
| 2026-05-06 09:32 | 14.59141 | -61.00126 | 17 ft | 2 kts | 80° |
| 2026-05-06 09:32 | 14.59148 | -61.00079 | 17 ft | 7 kts | 81° |
| 2026-05-06 09:32 | 14.59161 | -61.00032 | 18 ft | 6 kts | 53° |
| 2026-05-06 09:33 | 14.59215 | -61.00025 | 19 ft | 11 kts | 350° |
| 2026-05-06 09:33 | 14.59281 | -61.00038 | 20 ft | 2 kts | 350° |
| 2026-05-06 09:35 | 14.59286 | -61.00039 | 20 ft | 4 kts | 349° |
| 2026-05-06 09:35 | 14.59335 | -61.00038 | 20 ft | 9 kts | 22° |
| 2026-05-06 09:35 | 14.59358 | -60.99988 | 19 ft | 7 kts | 78° |
| 2026-05-06 09:35 | 14.59382 | -60.99979 | 19 ft | 4 kts | 9° |
| 2026-05-06 09:36 | 14.59410 | -60.99974 | 18 ft | 4 kts | 7° |
| 2026-05-06 09:36 | 14.59433 | -60.99971 | 18 ft | 3 kts | 7° |
| 2026-05-06 09:36 | 14.59437 | -60.99971 | 18 ft | 0 kts | 7° |